createdAt,value
2019-02-04T00:01:17.634Z,102290.92
2019-02-04T00:03:45.002Z,102283.42
2019-02-04T00:06:12.568Z,102284.62
2019-02-04T00:08:39.625Z,102282.55
2019-02-04T00:11:06.712Z,102278.77
2019-02-04T00:13:33.762Z,102275.41
2019-02-04T00:16:00.813Z,102277.59
2019-02-04T00:18:28.105Z,102283.89
2019-02-04T00:20:55.470Z,102287.53
2019-02-04T00:23:22.528Z,102298.98
2019-02-04T00:25:49.634Z,102299.16
2019-02-04T00:28:16.682Z,102297.46
2019-02-04T00:30:43.734Z,102298.88
2019-02-04T00:33:10.820Z,102298.59
2019-02-04T00:35:37.875Z,102297.84
2019-02-04T00:38:04.931Z,102303.09
2019-02-04T00:40:32.334Z,102309.97
2019-02-04T00:42:59.421Z,102312.65
2019-02-04T00:45:26.479Z,102320.34
2019-02-04T00:47:53.563Z,102317.66
2019-02-04T00:50:21.444Z,102326.53
2019-02-04T00:52:48.530Z,102318.08
2019-02-04T00:55:15.610Z,102322.03
2019-02-04T00:57:43.171Z,102321.23
2019-02-04T01:00:14.487Z,102321.64
2019-02-04T01:02:41.664Z,102324.27
2019-02-04T01:05:08.816Z,102318.56
2019-02-04T01:07:36.295Z,102312.94
2019-02-04T01:10:04.333Z,102310.41
2019-02-04T01:12:31.700Z,102321.09
2019-02-04T01:14:58.744Z,102320.08
2019-02-04T01:17:25.809Z,102336.19
2019-02-04T01:19:52.846Z,102334.97
2019-02-04T01:22:19.886Z,102331.41
2019-02-04T01:24:48.143Z,102319.95
2019-02-04T01:27:15.421Z,102322.88
2019-02-04T01:29:42.901Z,102326.67
2019-02-04T01:32:09.973Z,102317.31
2019-02-04T01:34:37.388Z,102324.40
2019-02-04T01:37:05.834Z,102320.15
2019-02-04T01:39:33.182Z,102322.62
2019-02-04T01:42:00.843Z,102327.39
2019-02-04T01:44:28.202Z,102331.55
2019-02-04T01:46:55.863Z,102343.33
2019-02-04T01:49:25.063Z,102342.31
2019-02-04T01:51:52.415Z,102341.29
2019-02-04T01:54:19.870Z,102341.87
2019-02-04T01:56:47.226Z,102345.57
2019-02-04T01:59:16.114Z,102343.25
2019-02-04T02:01:43.665Z,102351.23
2019-02-04T02:04:11.032Z,102350.15
2019-02-04T02:06:38.422Z,102346.80
2019-02-04T02:09:10.142Z,102351.29
2019-02-04T02:11:38.215Z,102358.67
2019-02-04T02:14:05.877Z,102358.31
2019-02-04T02:16:33.330Z,102363.54
2019-02-04T02:19:00.994Z,102358.71
2019-02-04T02:21:28.684Z,102360.48
2019-02-04T02:23:56.978Z,102359.80
2019-02-04T02:26:24.310Z,102360.45
2019-02-04T02:28:51.366Z,102360.81
2019-02-04T02:31:19.307Z,102364.94
2019-02-04T02:33:47.475Z,102371.52
2019-02-04T02:36:14.832Z,102361.91
2019-02-04T02:38:42.190Z,102363.61
2019-02-04T02:41:09.695Z,102364.89
2019-02-04T02:43:36.763Z,102363.44
2019-02-04T02:46:04.613Z,102366.42
2019-02-04T02:48:32.013Z,102360.00
2019-02-04T02:50:59.722Z,102359.80
2019-02-04T02:53:27.746Z,102364.69
2019-02-04T02:55:54.801Z,102368.72
2019-02-04T02:58:21.901Z,102373.36
2019-02-04T03:00:49.404Z,102368.49
2019-02-04T03:03:16.756Z,102376.31
2019-02-04T03:05:43.874Z,102377.31
2019-02-04T03:08:11.793Z,102374.84
2019-02-04T03:10:38.867Z,102372.19
2019-02-04T03:13:06.374Z,102369.97
2019-02-04T03:15:33.435Z,102365.77
2019-02-04T03:18:00.780Z,102367.80
2019-02-04T03:20:28.286Z,102364.22
2019-02-04T03:22:55.336Z,102369.97
2019-02-04T03:25:23.356Z,102364.10
2019-02-04T03:27:50.811Z,102362.99
2019-02-04T03:30:23.221Z,102357.06
2019-02-04T03:32:50.550Z,102359.23
2019-02-04T03:35:17.614Z,102362.55
2019-02-04T03:37:45.786Z,102364.14
2019-02-04T03:40:14.831Z,102356.53
2019-02-04T03:42:42.617Z,102360.47
2019-02-04T03:45:10.814Z,102357.83
2019-02-04T03:47:38.246Z,102364.56
2019-02-04T03:50:06.900Z,102358.16
2019-02-04T03:52:33.930Z,102350.83
2019-02-04T03:55:01.233Z,102353.11
2019-02-04T03:57:28.581Z,102359.23
2019-02-04T03:59:57.105Z,102360.41
2019-02-04T04:02:24.320Z,102354.94
2019-02-04T04:04:51.670Z,102355.93
2019-02-04T04:07:19.022Z,102353.42
2019-02-04T04:09:46.082Z,102353.83
2019-02-04T04:12:13.734Z,102350.59
2019-02-04T04:14:41.140Z,102350.64
2019-02-04T04:17:08.445Z,102343.25
2019-02-04T04:19:36.514Z,102345.27
2019-02-04T04:22:03.868Z,102345.78
2019-02-04T04:24:31.223Z,102345.59
2019-02-04T04:26:58.285Z,102346.48
2019-02-04T04:29:25.635Z,102352.84
2019-02-04T04:31:52.683Z,102344.63
2019-02-04T04:34:19.758Z,102342.84
2019-02-04T04:36:46.794Z,102334.50
2019-02-04T04:39:13.838Z,102337.09
2019-02-04T04:41:40.939Z,102343.52
2019-02-04T04:44:07.985Z,102331.95
2019-02-04T04:46:35.023Z,102334.23
2019-02-04T04:49:02.098Z,102328.56
2019-02-04T04:51:29.152Z,102329.56
2019-02-04T04:53:56.207Z,102330.87
2019-02-04T04:56:23.384Z,102339.88
2019-02-04T04:58:50.427Z,102329.48
2019-02-04T05:01:17.783Z,102332.22
2019-02-04T05:03:45.036Z,102342.63
2019-02-04T05:06:12.082Z,102341.78
2019-02-04T05:08:39.135Z,102336.19
2019-02-04T05:11:06.866Z,102339.06
2019-02-04T05:13:34.323Z,102335.86
2019-02-04T05:16:01.681Z,102346.14
2019-02-04T05:18:37.816Z,102343.55
2019-02-04T05:20:58.942Z,102349.98
2019-02-04T05:23:26.296Z,102344.94
2019-02-04T05:25:53.649Z,102345.02
2019-02-04T05:28:21.310Z,102343.19
2019-02-04T05:30:48.667Z,102344.48
2019-02-04T05:33:16.020Z,102353.31
2019-02-04T05:35:43.376Z,102346.44
2019-02-04T05:38:11.449Z,102337.40
2019-02-04T05:40:39.150Z,102336.88
2019-02-04T05:43:07.125Z,102336.55
2019-02-04T05:45:34.537Z,102338.72
2019-02-04T05:48:02.710Z,102337.82
2019-02-04T05:50:30.061Z,102344.49
2019-02-04T05:52:57.827Z,102338.37
2019-02-04T05:55:25.487Z,102334.48
2019-02-04T05:57:52.848Z,102340.36
2019-02-04T06:00:31.846Z,102335.09
2019-02-04T06:02:59.627Z,102331.21
2019-02-04T06:05:26.998Z,102324.87
2019-02-04T06:07:54.344Z,102328.63
2019-02-04T06:10:22.108Z,102324.30
2019-02-04T06:12:49.458Z,102319.75
2019-02-04T06:15:17.058Z,102320.00
2019-02-04T06:17:44.134Z,102321.95
2019-02-04T06:20:13.650Z,102328.30
2019-02-04T06:22:40.723Z,102327.12
2019-02-04T06:25:08.073Z,102321.48
2019-02-04T06:27:35.105Z,102313.20
2019-02-04T06:30:02.223Z,102319.98
2019-02-04T06:32:29.743Z,102317.98
2019-02-04T06:34:57.107Z,102309.86
2019-02-04T06:37:24.436Z,102315.27
2019-02-04T06:39:51.993Z,102309.77
2019-02-04T06:42:19.965Z,102306.80
2019-02-04T06:44:47.020Z,102310.08
2019-02-04T06:47:14.061Z,102306.88
2019-02-04T06:49:41.726Z,102300.41
2019-02-04T06:52:09.074Z,102304.52
2019-02-04T06:54:36.445Z,102308.22
2019-02-04T06:57:03.785Z,102303.08
2019-02-04T06:59:31.142Z,102304.83
2019-02-04T07:01:58.505Z,102295.47
2019-02-04T07:04:26.153Z,102296.54
2019-02-04T07:06:54.022Z,102298.42
2019-02-04T07:09:21.681Z,102299.17
2019-02-04T07:11:49.757Z,102299.39
2019-02-04T07:14:17.517Z,102298.98
2019-02-04T07:16:45.184Z,102294.58
2019-02-04T07:19:23.341Z,102290.75
2019-02-04T07:21:41.939Z,102296.34
2019-02-04T07:24:09.290Z,102291.50
2019-02-04T07:26:36.977Z,102287.27
2019-02-04T07:29:04.028Z,102283.67
2019-02-04T07:31:31.663Z,102285.45
2019-02-04T07:34:00.451Z,102283.69
2019-02-04T07:36:28.315Z,102289.03
2019-02-04T07:38:55.672Z,102278.73
2019-02-04T07:41:23.124Z,102281.77
2019-02-04T07:43:51.071Z,102286.31
2019-02-04T07:46:18.450Z,102287.63
2019-02-04T07:48:46.114Z,102288.34
2019-02-04T07:51:15.824Z,102297.33
2019-02-04T07:53:43.589Z,102287.92
2019-02-04T07:56:10.625Z,102289.31
2019-02-04T07:58:37.985Z,102295.44
2019-02-04T08:01:05.447Z,102290.77
2019-02-04T08:03:32.798Z,102293.70
2019-02-04T08:06:00.463Z,102287.04
2019-02-04T08:08:28.126Z,102297.05
2019-02-04T08:10:56.090Z,102287.34
2019-02-04T08:13:23.475Z,102285.75
2019-02-04T08:15:50.799Z,102278.36
2019-02-04T08:18:18.666Z,102270.37
2019-02-04T08:20:46.020Z,102273.35
2019-02-04T08:23:13.678Z,102264.55
2019-02-04T08:25:41.857Z,102260.62
2019-02-04T08:28:08.931Z,102264.36
2019-02-04T08:30:38.356Z,102260.30
2019-02-04T08:33:05.246Z,102263.13
2019-02-04T08:35:32.323Z,102266.52
2019-02-04T08:37:59.700Z,102259.45
2019-02-04T08:40:26.748Z,102256.19
2019-02-04T08:42:54.219Z,102263.67
2019-02-04T08:45:21.276Z,102270.45
2019-02-04T08:47:48.315Z,102270.53
2019-02-04T08:50:17.086Z,102256.20
2019-02-04T08:52:44.327Z,102266.61
2019-02-04T08:55:11.590Z,102263.50
2019-02-04T08:57:38.998Z,102263.66
2019-02-04T09:00:07.865Z,102254.48
2019-02-04T09:02:37.214Z,102265.59
2019-02-04T09:05:05.067Z,102262.97
2019-02-04T09:07:33.198Z,102257.06
2019-02-04T09:10:00.327Z,102264.67
2019-02-04T09:12:27.452Z,102265.98
2019-02-04T09:14:54.498Z,102279.09
2019-02-04T09:17:22.338Z,102283.26
2019-02-04T09:19:50.411Z,102281.12
2019-02-04T09:22:17.808Z,102284.88
2019-02-04T09:24:45.264Z,102276.49
2019-02-04T09:27:12.352Z,102275.27
2019-02-04T09:29:39.403Z,102294.55
2019-02-04T09:32:06.776Z,102282.61
2019-02-04T09:34:33.849Z,102284.13
2019-02-04T09:37:01.589Z,102283.03
2019-02-04T09:39:29.135Z,102285.77
2019-02-04T09:41:56.200Z,102288.34
2019-02-04T09:44:23.851Z,102291.27
2019-02-04T09:46:51.209Z,102277.78
2019-02-04T09:49:19.276Z,102279.39
2019-02-04T09:51:47.048Z,102268.36
2019-02-04T09:54:14.499Z,102278.17
2019-02-04T09:56:42.191Z,102271.16
2019-02-04T09:59:09.633Z,102266.29
2019-02-04T10:01:37.798Z,102279.45
2019-02-04T10:04:04.886Z,102274.41
2019-02-04T10:06:34.139Z,102265.13
2019-02-04T10:09:02.106Z,102260.42
2019-02-04T10:11:33.454Z,102260.64
2019-02-04T10:14:01.219Z,102263.30
2019-02-04T10:16:28.571Z,102246.74
2019-02-04T10:18:56.181Z,102258.69
2019-02-04T10:21:23.598Z,102262.23
2019-02-04T10:23:50.946Z,102262.84
2019-02-04T10:26:19.422Z,102250.48
2019-02-04T10:28:47.189Z,102251.66
2019-02-04T10:31:15.828Z,102251.61
2019-02-04T10:33:43.888Z,102246.74
2019-02-04T10:36:11.193Z,102241.64
2019-02-04T10:38:38.694Z,102229.95
2019-02-04T10:41:05.952Z,102236.28
2019-02-04T10:43:34.791Z,102241.52
2019-02-04T10:46:04.727Z,102234.80
2019-02-04T10:48:32.853Z,102249.12
2019-02-04T10:51:00.230Z,102239.08
2019-02-04T10:53:28.553Z,102233.13
2019-02-04T10:55:55.961Z,102224.28
2019-02-04T10:58:23.019Z,102211.06
2019-02-04T11:00:50.521Z,102208.16
2019-02-04T11:03:19.928Z,102208.48
2019-02-04T11:05:46.878Z,102214.29
2019-02-04T11:08:14.138Z,102208.64
2019-02-04T11:10:41.586Z,102204.71
2019-02-04T11:13:11.461Z,102198.64
2019-02-04T11:15:39.215Z,102195.50
2019-02-04T11:18:06.443Z,102197.66
2019-02-04T11:20:33.801Z,102199.06
2019-02-04T11:23:01.226Z,102197.34
2019-02-04T11:25:28.597Z,102199.52
2019-02-04T11:27:56.011Z,102194.02
2019-02-04T11:30:26.419Z,102195.09
2019-02-04T11:32:54.056Z,102180.88
2019-02-04T11:35:21.833Z,102193.70
2019-02-04T11:37:49.714Z,102192.34
2019-02-04T11:40:20.307Z,102199.50
2019-02-04T11:42:47.698Z,102183.08
2019-02-04T11:45:15.520Z,102182.91
2019-02-04T11:47:43.850Z,102173.83
2019-02-04T11:50:11.283Z,102172.56
2019-02-04T11:52:38.467Z,102174.44
2019-02-04T11:55:05.896Z,102179.20
2019-02-04T11:57:33.380Z,102182.83
2019-02-04T12:00:00.488Z,102165.35
2019-02-04T12:02:34.443Z,102168.31
2019-02-04T12:04:57.547Z,102171.97
2019-02-04T12:07:24.645Z,102176.75
2019-02-04T12:09:51.735Z,102179.58
2019-02-04T12:12:18.800Z,102173.53
2019-02-04T12:14:46.291Z,102175.33
2019-02-04T12:17:13.343Z,102170.16
2019-02-04T12:19:40.423Z,102186.08
2019-02-04T12:22:08.167Z,102176.34
2019-02-04T12:24:36.314Z,102175.35
2019-02-04T12:27:04.466Z,102170.30
2019-02-04T12:29:31.769Z,102164.96
2019-02-04T12:31:59.483Z,102161.11
2019-02-04T12:34:26.941Z,102156.00
2019-02-04T12:36:54.394Z,102155.77
2019-02-04T12:39:22.266Z,102152.69
2019-02-04T12:41:50.740Z,102152.80
2019-02-04T12:44:18.313Z,102153.95
2019-02-04T12:46:45.676Z,102160.81
2019-02-04T12:49:13.010Z,102151.52
2019-02-04T12:51:40.068Z,102146.10
2019-02-04T12:54:07.121Z,102151.45
2019-02-04T12:56:34.476Z,102146.00
2019-02-04T12:59:01.882Z,102155.33
2019-02-04T13:01:29.271Z,102146.12
2019-02-04T13:03:57.368Z,102144.28
2019-02-04T13:06:24.801Z,102137.66
2019-02-04T13:08:51.855Z,102126.75
2019-02-04T13:11:19.246Z,102139.69
2019-02-04T13:13:47.017Z,102140.69
2019-02-04T13:16:14.728Z,102132.27
2019-02-04T13:18:42.083Z,102127.30
2019-02-04T13:21:09.159Z,102120.27
2019-02-04T13:23:36.225Z,102127.74
2019-02-04T13:26:03.281Z,102128.81
2019-02-04T13:28:30.358Z,102108.63
2019-02-04T13:30:57.917Z,102114.16
2019-02-04T13:33:24.992Z,102113.21
2019-02-04T13:35:52.044Z,102118.90
2019-02-04T13:38:19.351Z,102103.58
2019-02-04T13:40:46.610Z,102109.41
2019-02-04T13:43:15.703Z,102105.66
2019-02-04T13:45:44.577Z,102096.57
2019-02-04T13:48:12.117Z,102102.47
2019-02-04T13:50:39.884Z,102095.70
2019-02-04T13:53:07.159Z,102085.80
2019-02-04T13:55:34.603Z,102086.46
2019-02-04T13:58:01.821Z,102090.75
2019-02-04T14:00:29.092Z,102081.13
2019-02-04T14:02:59.685Z,102088.08
2019-02-04T14:05:31.097Z,102087.77
2019-02-04T14:07:57.487Z,102081.27
2019-02-04T14:10:26.782Z,102084.39
2019-02-04T14:12:54.630Z,102088.81
2019-02-04T14:15:22.299Z,102073.22
2019-02-04T14:17:50.158Z,102066.67
2019-02-04T14:20:17.800Z,102072.55
2019-02-04T14:22:44.841Z,102066.79
2019-02-04T14:25:15.013Z,102076.55
2019-02-04T14:27:43.330Z,102065.13
2019-02-04T14:30:31.987Z,102059.94
2019-02-04T14:32:59.373Z,102055.34
2019-02-04T14:35:27.409Z,102057.05
2019-02-04T14:37:54.622Z,102052.30
2019-02-04T14:40:23.286Z,102051.72
2019-02-04T14:42:59.754Z,102051.85
2019-02-04T14:46:05.087Z,102040.02
2019-02-04T14:48:59.331Z,102052.53
2019-02-04T14:51:44.642Z,102052.28
2019-02-04T14:54:41.662Z,102062.23
2019-02-04T14:57:49.468Z,102042.47
2019-02-04T15:00:39.936Z,102044.08
2019-02-04T15:03:51.447Z,102046.27
2019-02-04T15:07:17.779Z,102041.38
2019-02-04T15:10:19.879Z,102026.19
2019-02-04T15:14:00.610Z,102036.69
2019-02-04T15:17:01.614Z,102043.30
2019-02-04T15:19:59.620Z,102007.77
2019-02-04T15:22:52.722Z,102026.73
2019-02-04T15:25:58.123Z,102016.08
2019-02-04T15:28:48.489Z,102020.63
2019-02-04T15:31:57.725Z,102024.94
2019-02-04T15:35:18.978Z,102022.05
2019-02-04T15:38:26.010Z,102019.59
2019-02-04T15:41:06.899Z,102013.10
2019-02-04T15:43:55.963Z,102017.14
2019-02-04T15:46:44.629Z,102036.20
2019-02-04T15:50:07.647Z,102032.83
2019-02-04T15:52:45.209Z,102037.92
2019-02-04T15:55:07.969Z,102049.11
2019-02-04T15:57:35.370Z,102046.81
2019-02-04T16:00:02.826Z,102049.24
2019-02-04T16:02:30.133Z,102058.64
2019-02-04T16:04:57.198Z,102064.44
2019-02-04T16:07:24.264Z,102075.01
2019-02-04T16:09:51.296Z,102064.59
2019-02-04T16:12:18.375Z,102061.55
2019-02-04T16:14:45.449Z,102049.56
2019-02-04T16:17:12.821Z,102032.17
2019-02-04T16:19:39.914Z,102017.97
2019-02-04T16:22:08.252Z,102011.18
2019-02-04T16:24:35.251Z,102003.62
2019-02-04T16:27:03.216Z,102007.47
2019-02-04T16:29:31.106Z,102007.45
2019-02-04T16:31:58.690Z,102000.44
2019-02-04T16:34:25.801Z,102016.76
2019-02-04T16:36:52.840Z,102010.09
2019-02-04T16:39:19.925Z,101989.45
2019-02-04T16:41:47.243Z,102025.48
2019-02-04T16:44:14.289Z,102007.16
2019-02-04T16:46:42.491Z,101994.52
2019-02-04T16:49:09.962Z,101997.23
2019-02-04T16:51:37.105Z,101999.87
2019-02-04T16:54:05.342Z,101986.45
2019-02-04T16:56:33.430Z,101993.33
2019-02-04T16:59:00.487Z,101990.80
2019-02-04T17:01:27.539Z,102002.93
2019-02-04T17:03:54.989Z,102005.92
2019-02-04T17:06:22.933Z,101983.56
2019-02-04T17:08:51.121Z,101989.58
2019-02-04T17:11:18.457Z,101987.06
2019-02-04T17:13:46.124Z,101976.24
2019-02-04T17:16:13.480Z,101975.38
2019-02-04T17:18:40.681Z,101981.20
2019-02-04T17:21:08.803Z,101986.08
2019-02-04T17:23:35.956Z,102000.80
2019-02-04T17:26:03.351Z,101999.80
2019-02-04T17:28:30.416Z,101990.96
2019-02-04T17:30:57.484Z,102002.72
2019-02-04T17:33:24.957Z,101988.57
2019-02-04T17:35:53.240Z,101989.07
2019-02-04T17:38:20.999Z,101986.02
2019-02-04T17:40:48.351Z,101991.25
2019-02-04T17:43:15.735Z,101982.40
2019-02-04T17:45:42.799Z,101966.09
2019-02-04T17:48:11.487Z,101973.89
2019-02-04T17:50:39.686Z,101973.50
2019-02-04T17:53:06.759Z,101965.27
2019-02-04T17:55:35.287Z,101953.46
2019-02-04T17:58:02.443Z,101957.75
2019-02-04T18:00:35.539Z,101961.50
2019-02-04T18:03:03.089Z,101961.25
2019-02-04T18:05:31.246Z,101956.14
2019-02-04T18:07:58.773Z,101954.01
2019-02-04T18:10:26.271Z,101944.16
2019-02-04T18:12:53.330Z,101946.41
2019-02-04T18:15:21.147Z,101936.01
2019-02-04T18:17:49.312Z,101948.61
2019-02-04T18:20:16.564Z,101929.84
2019-02-04T18:22:46.202Z,101939.11
2019-02-04T18:25:14.269Z,101934.91
2019-02-04T18:27:41.447Z,101943.09
2019-02-04T18:30:11.820Z,101945.42
2019-02-04T18:32:38.862Z,101949.58
2019-02-04T18:35:08.818Z,101946.80
2019-02-04T18:37:35.850Z,101945.94
2019-02-04T18:40:04.302Z,101943.77
2019-02-04T18:42:31.669Z,101938.88
2019-02-04T18:45:00.524Z,101946.02
2019-02-04T18:47:27.975Z,101946.73
2019-02-04T18:49:55.989Z,101944.09
2019-02-04T18:52:23.794Z,101950.34
2019-02-04T18:54:51.616Z,101950.11
2019-02-04T18:57:18.879Z,101942.69
2019-02-04T18:59:47.451Z,101942.45
2019-02-04T19:02:15.011Z,101938.63
2019-02-04T19:04:42.689Z,101938.77
2019-02-04T19:07:11.587Z,101934.12
2019-02-04T19:09:38.947Z,101939.97
2019-02-04T19:12:06.265Z,101932.02
2019-02-04T19:14:34.734Z,101922.31
2019-02-04T19:17:02.779Z,101942.36
2019-02-04T19:19:30.996Z,101930.59
2019-02-04T19:21:58.041Z,101924.40
2019-02-04T19:24:25.079Z,101928.09
2019-02-04T19:26:54.047Z,101917.41
2019-02-04T19:29:21.278Z,101920.17
2019-02-04T19:31:48.513Z,101924.27
2019-02-04T19:34:15.553Z,101928.03
2019-02-04T19:36:43.701Z,101899.86
2019-02-04T19:39:10.817Z,101928.97
2019-02-04T19:41:37.981Z,101927.06
2019-02-04T19:44:05.032Z,101922.68
2019-02-04T19:46:32.232Z,101954.45
2019-02-04T19:48:59.581Z,101925.63
2019-02-04T19:51:26.642Z,101925.47
2019-02-04T19:53:54.571Z,101922.88
2019-02-04T19:56:21.934Z,101913.73
2019-02-04T19:58:49.000Z,101922.22
2019-02-04T20:01:16.925Z,101901.73
2019-02-04T20:03:44.002Z,101920.61
2019-02-04T20:06:11.642Z,101919.05
2019-02-04T20:08:39.454Z,101916.39
2019-02-04T20:11:06.966Z,101923.66
2019-02-04T20:13:35.481Z,101916.14
2019-02-04T20:16:02.731Z,101931.52
2019-02-04T20:18:29.818Z,101917.43
2019-02-04T20:20:57.141Z,101912.81
2019-02-04T20:23:24.186Z,101913.59
2019-02-04T20:25:52.022Z,101923.66
2019-02-04T20:28:20.176Z,101929.88
2019-02-04T20:30:48.150Z,101926.13
2019-02-04T20:33:16.847Z,101937.34
2019-02-04T20:35:44.466Z,101927.00
2019-02-04T20:38:11.618Z,101917.61
2019-02-04T20:40:39.443Z,101929.84
2019-02-04T20:43:08.099Z,101934.77
2019-02-04T20:45:36.647Z,101918.72
2019-02-04T20:48:06.220Z,101929.02
2019-02-04T20:50:35.589Z,101921.73
2019-02-04T20:53:03.295Z,101923.52
2019-02-04T20:55:30.849Z,101927.58
2019-02-04T20:57:59.389Z,101922.25
2019-02-04T21:00:28.292Z,101928.84
2019-02-04T21:02:56.061Z,101930.59
2019-02-04T21:05:23.137Z,101928.22
2019-02-04T21:07:50.467Z,101920.75
2019-02-04T21:10:19.349Z,101929.27
2019-02-04T21:12:46.420Z,101934.42
2019-02-04T21:15:16.511Z,101926.73
2019-02-04T21:17:43.697Z,101940.90
2019-02-04T21:20:14.787Z,101942.37
2019-02-04T21:22:43.417Z,101943.83
2019-02-04T21:25:10.583Z,101937.74
2019-02-04T21:27:38.836Z,101941.70
2019-02-04T21:30:11.080Z,101937.61
2019-02-04T21:32:38.267Z,101941.91
2019-02-04T21:35:05.683Z,101939.17
2019-02-04T21:37:33.503Z,101940.34
2019-02-04T21:40:00.554Z,101943.04
2019-02-04T21:42:27.663Z,101935.10
2019-02-04T21:44:55.012Z,101929.77
2019-02-04T21:47:22.646Z,101932.36
2019-02-04T21:49:50.153Z,101926.21
2019-02-04T21:52:18.303Z,101925.70
2019-02-04T21:54:45.985Z,101931.98
2019-02-04T21:57:13.369Z,101917.03
2019-02-04T21:59:41.492Z,101933.39
2019-02-04T22:02:08.561Z,101928.28
2019-02-04T22:04:36.321Z,101941.75
2019-02-04T22:07:03.659Z,101938.12
2019-02-04T22:09:31.732Z,101940.65
2019-02-04T22:11:59.388Z,101938.81
2019-02-04T22:14:26.798Z,101929.25
2019-02-04T22:16:53.953Z,101915.34
2019-02-04T22:19:21.002Z,101929.13
2019-02-04T22:21:49.469Z,101932.77
2019-02-04T22:24:17.122Z,101935.41
2019-02-04T22:26:44.539Z,101935.53
2019-02-04T22:29:12.302Z,101928.03
2019-02-04T22:31:39.657Z,101928.11
2019-02-04T22:34:07.044Z,101931.28
2019-02-04T22:36:34.065Z,101939.02
2019-02-04T22:39:01.722Z,101928.08
2019-02-04T22:41:31.531Z,101934.12
2019-02-04T22:43:58.578Z,101926.67
2019-02-04T22:46:26.548Z,101926.41
2019-02-04T22:48:54.311Z,101911.00
2019-02-04T22:51:21.662Z,101927.44
2019-02-04T22:53:48.705Z,101922.20
2019-02-04T22:56:15.766Z,101927.00
2019-02-04T22:58:43.319Z,101929.52
2019-02-04T23:01:41.291Z,101923.81
2019-02-04T23:04:09.258Z,101929.88
2019-02-04T23:06:36.316Z,101925.11
2019-02-04T23:09:07.644Z,101932.41
2019-02-04T23:11:35.727Z,101915.20
2019-02-04T23:14:03.616Z,101914.54
2019-02-04T23:16:31.375Z,101906.55
2019-02-04T23:19:01.382Z,101916.47
2019-02-04T23:21:28.728Z,101924.06
2019-02-04T23:23:56.597Z,101919.09
2019-02-04T23:26:24.073Z,101928.34
2019-02-04T23:28:52.221Z,101934.70
2019-02-04T23:31:20.089Z,101938.49
2019-02-04T23:33:47.126Z,101928.28
2019-02-04T23:36:14.502Z,101935.00
2019-02-04T23:38:41.603Z,101945.53
2019-02-04T23:41:08.922Z,101951.78
2019-02-04T23:43:36.677Z,101944.72
2019-02-04T23:46:05.447Z,101945.63
2019-02-04T23:48:32.909Z,101946.62
2019-02-04T23:50:59.987Z,101953.61
2019-02-04T23:53:27.513Z,101953.03
2019-02-04T23:55:55.043Z,101953.86
2019-02-04T23:58:23.231Z,101960.73
